Time;durP1;ratioP1;P1;durP2;ratioP2;P2;SDS_P1;SDS_P2;PMS_P1;PMS_P2;Temp;Humidity;BMP_temperature;BMP_pressure;BME280_temperature;BME280_humidity;BME280_pressure;Samples;Min_cycle;Max_cycle;Signal;HPM_P1;HPM_P2
2024/02/13 00:01:42;;;;;;;8.90;6.10;;;;;;;5.16;100.00;100472.50;4993389;28;20242;-82
2024/02/13 00:04:10;;;;;;;8.80;7.07;;;;;;;5.12;100.00;100484.09;4997890;28;20218;-84
2024/02/13 00:06:36;;;;;;;11.53;7.10;;;;;;;5.11;100.00;100478.88;4996548;28;20215;-84
2024/02/13 00:09:04;;;;;;;10.83;6.93;;;;;;;5.12;100.00;100489.38;4997395;28;20216;-84
2024/02/13 00:11:31;;;;;;;10.53;7.97;;;;;;;5.13;100.00;100487.59;4993999;28;20957;-82
2024/02/13 00:13:57;;;;;;;9.53;7.47;;;;;;;5.12;100.00;100494.66;4993475;28;20322;-82
2024/02/13 00:16:24;;;;;;;12.07;7.67;;;;;;;5.13;100.00;100492.88;4996619;28;20338;-82
2024/02/13 00:18:52;;;;;;;11.53;8.17;;;;;;;5.13;100.00;100493.75;5002008;28;20261;-82
2024/02/13 00:21:19;;;;;;;12.27;9.73;;;;;;;5.15;100.00;100491.03;4991566;28;20231;-84
2024/02/13 00:23:46;;;;;;;12.40;10.17;;;;;;;5.13;100.00;100500.81;4984533;28;20205;-83
2024/02/13 00:26:13;;;;;;;12.20;8.97;;;;;;;5.13;100.00;100503.44;4994700;28;20242;-82
2024/02/13 00:28:39;;;;;;;12.10;9.13;;;;;;;5.11;100.00;100505.28;4995699;28;20203;-82
2024/02/13 00:31:07;;;;;;;14.70;9.17;;;;;;;5.11;100.00;100510.56;4997447;28;20224;-82
2024/02/13 00:33:34;;;;;;;14.10;9.57;;;;;;;5.09;100.00;100513.25;4989654;28;20208;-83
2024/02/13 00:36:02;;;;;;;13.00;9.50;;;;;;;5.11;100.00;100518.47;4997023;28;20210;-83
2024/02/13 00:38:30;;;;;;;12.77;8.73;;;;;;;5.13;100.00;100519.28;4994453;28;20483;-83
2024/02/13 00:40:56;;;;;;;15.17;10.70;;;;;;;5.12;100.00;100518.41;4996836;28;20687;-83
2024/02/13 00:43:23;;;;;;;13.53;9.93;;;;;;;5.10;100.00;100520.25;4993822;28;20846;-83
2024/02/13 00:45:49;;;;;;;18.17;10.47;;;;;;;5.11;100.00;100529.91;4995783;28;20637;-83
2024/02/13 00:48:17;;;;;;;15.43;10.50;;;;;;;5.12;100.00;100533.41;5001187;28;20207;-82
2024/02/13 00:50:44;;;;;;;15.50;9.60;;;;;;;5.14;100.00;100536.84;4992601;28;20959;-82
2024/02/13 00:53:14;;;;;;;12.73;9.10;;;;;;;5.15;100.00;100530.63;5000051;28;20244;-83
2024/02/13 00:55:42;;;;;;;12.53;9.73;;;;;;;5.12;100.00;100536.03;4993384;28;20912;-83
2024/02/13 00:58:08;;;;;;;13.20;8.97;;;;;;;5.09;100.00;100531.75;4990677;28;20281;-82
2024/02/13 01:00:35;;;;;;;11.47;8.90;;;;;;;5.11;100.00;100543.09;5004562;28;20226;-83
2024/02/13 01:03:02;;;;;;;13.57;8.20;;;;;;;5.08;100.00;100548.50;4997035;28;20200;-83
2024/02/13 01:05:30;;;;;;;11.37;7.70;;;;;;;5.09;100.00;100549.38;4994205;28;20265;-82
2024/02/13 01:07:57;;;;;;;11.80;8.17;;;;;;;5.08;100.00;100552.94;4994450;28;20212;-82
2024/02/13 01:10:25;;;;;;;12.07;8.70;;;;;;;5.08;100.00;100552.94;4989573;28;20614;-82
2024/02/13 01:12:52;;;;;;;12.10;8.60;;;;;;;5.06;100.00;100554.78;4989194;28;20199;-83
2024/02/13 01:15:19;;;;;;;13.30;9.27;;;;;;;5.05;100.00;100567.09;4987344;28;20211;-82
2024/02/13 01:17:45;;;;;;;12.77;9.00;;;;;;;5.03;100.00;100561.03;4992607;28;20227;-83
2024/02/13 01:20:14;;;;;;;15.60;9.07;;;;;;;5.00;100.00;100562.97;4995808;28;20232;-82
2024/02/13 01:22:42;;;;;;;14.87;8.83;;;;;;;5.00;100.00;100571.75;4991148;28;20211;-82
2024/02/13 01:25:10;;;;;;;16.27;9.47;;;;;;;5.01;100.00;100575.25;4996945;28;20623;-82
2024/02/13 01:27:38;;;;;;;14.10;9.30;;;;;;;4.98;100.00;100583.28;4992794;28;20230;-83
2024/02/13 01:30:09;;;;;;;13.73;9.63;;;;;;;4.98;100.00;100585.91;4992090;28;20282;-83
2024/02/13 01:32:36;;;;;;;13.17;9.17;;;;;;;4.95;100.00;100586.03;4999843;28;20238;-82
2024/02/13 01:35:02;;;;;;;15.17;9.83;;;;;;;4.94;100.00;100592.25;4997843;28;20216;-82
2024/02/13 01:37:29;;;;;;;15.00;9.83;;;;;;;4.91;100.00;100587.94;4987909;28;20313;-82
2024/02/13 01:39:55;;;;;;;13.37;9.93;;;;;;;4.92;100.00;100592.28;4990199;28;20262;-82
2024/02/13 01:42:23;;;;;;;17.27;10.77;;;;;;;4.96;100.00;100599.19;4991823;28;20211;-82
2024/02/13 01:44:51;;;;;;;15.00;11.23;;;;;;;4.99;100.00;100600.84;5000004;28;20266;-83
2024/02/13 01:47:18;;;;;;;14.93;9.63;;;;;;;4.98;100.00;100597.34;4997371;28;20254;-84
2024/02/13 01:49:44;;;;;;;15.53;11.17;;;;;;;4.98;100.00;100599.13;4990854;28;20200;-84
2024/02/13 01:52:12;;;;;;;16.67;10.80;;;;;;;4.99;100.00;100608.75;5002111;28;20684;-83
2024/02/13 01:54:39;;;;;;;15.23;10.60;;;;;;;4.99;100.00;100604.34;4996310;28;20254;-82
2024/02/13 01:57:06;;;;;;;14.57;10.70;;;;;;;5.01;100.00;100612.19;4990673;28;20211;-82
2024/02/13 01:59:38;;;;;;;13.63;10.40;;;;;;;5.02;100.00;100614.75;4991241;28;20230;-83
2024/02/13 02:02:08;;;;;;;15.73;10.33;;;;;;;5.02;100.00;100617.38;4998249;28;20250;-83
2024/02/13 02:04:38;;;;;;;15.13;11.07;;;;;;;5.03;100.00;100626.16;4995204;28;20287;-83
2024/02/13 02:07:05;;;;;;;15.27;10.93;;;;;;;5.01;100.00;100625.38;4993454;28;20208;-83
2024/02/13 02:09:32;;;;;;;16.33;11.60;;;;;;;5.01;100.00;100625.38;4993178;28;20743;-82
2024/02/13 02:11:59;;;;;;;16.40;10.13;;;;;;;5.02;100.00;100625.28;4989685;28;20208;-83
2024/02/13 02:14:27;;;;;;;15.27;10.60;;;;;;;5.03;100.00;100628.78;4998713;28;20413;-82
2024/02/13 02:16:55;;;;;;;13.87;10.63;;;;;;;5.04;100.00;100625.22;4990004;28;20216;-83
2024/02/13 02:19:22;;;;;;;15.40;10.77;;;;;;;5.03;100.00;100624.38;4997383;28;20227;-82
2024/02/13 02:21:49;;;;;;;16.50;10.93;;;;;;;5.05;100.00;100632.22;4997852;28;20223;-83
2024/02/13 02:24:15;;;;;;;14.97;11.17;;;;;;;5.06;100.00;100628.69;4993658;28;20218;-83
2024/02/13 02:26:43;;;;;;;14.57;10.90;;;;;;;5.04;100.00;100635.78;4997058;28;20211;-84
2024/02/13 02:29:10;;;;;;;15.47;10.80;;;;;;;5.04;100.00;100641.94;4987471;28;20203;-82
2024/02/13 02:31:38;;;;;;;16.77;10.63;;;;;;;5.05;100.00;100650.72;4993851;28;20223;-82
2024/02/13 02:34:04;;;;;;;14.50;10.40;;;;;;;5.06;100.00;100647.16;4989130;28;20274;-82
2024/02/13 02:36:32;;;;;;;17.63;10.53;;;;;;;5.04;100.00;100641.94;4997684;28;20215;-83
2024/02/13 02:38:58;;;;;;;14.10;9.63;;;;;;;5.07;100.00;100651.50;4990180;28;20227;-84
2024/02/13 02:41:25;;;;;;;16.37;11.07;;;;;;;5.06;100.00;100644.50;5001210;28;20239;-82
2024/02/13 02:43:53;;;;;;;15.77;10.97;;;;;;;5.06;100.00;100645.38;4994458;28;20297;-83
2024/02/13 02:46:20;;;;;;;15.50;10.47;;;;;;;5.04;100.00;100652.50;4992507;28;20204;-82
2024/02/13 02:48:46;;;;;;;13.57;10.17;;;;;;;5.07;100.00;100652.38;4997416;28;20207;-82
2024/02/13 02:51:13;;;;;;;16.67;9.67;;;;;;;5.10;100.00;100652.25;4998606;28;20234;-82
2024/02/13 02:53:40;;;;;;;13.77;9.87;;;;;;;5.06;100.00;100655.94;4991323;28;20218;-82
2024/02/13 02:56:07;;;;;;;16.23;10.53;;;;;;;5.03;100.00;100652.56;5006433;28;20302;-82
2024/02/13 02:58:33;;;;;;;14.33;9.67;;;;;;;5.02;100.00;100654.34;5000071;28;20229;-82
2024/02/13 03:01:02;;;;;;;12.43;9.67;;;;;;;4.97;100.00;100661.59;5008274;28;20222;-81
2024/02/13 03:03:28;;;;;;;11.30;10.00;;;;;;;4.96;100.00;100670.44;4993261;28;20214;-82
2024/02/13 03:05:54;;;;;;;14.10;10.57;;;;;;;4.92;100.00;100670.59;4998672;28;20210;-83
2024/02/13 03:08:21;;;;;;;12.47;9.60;;;;;;;4.89;100.00;100677.72;4989084;28;20852;-83
2024/02/13 03:10:48;;;;;;;13.77;8.90;;;;;;;4.88;100.00;100683.06;5001648;28;20226;-82
2024/02/13 03:13:15;;;;;;;15.17;9.43;;;;;;;4.85;100.00;100689.31;4991075;28;20207;-86
2024/02/13 03:15:42;;;;;;;14.50;9.13;;;;;;;4.85;100.00;100691.09;5000872;28;20214;-83
2024/02/13 03:18:10;;;;;;;12.30;8.87;;;;;;;4.84;100.00;100694.66;4996148;28;20203;-82
2024/02/13 03:20:37;;;;;;;15.00;9.20;;;;;;;4.80;100.00;100688.66;4990203;28;20231;-83
2024/02/13 03:23:03;;;;;;;13.53;9.67;;;;;;;4.75;100.00;100690.59;4995782;28;20234;-84
2024/02/13 03:25:30;;;;;;;11.03;9.27;;;;;;;4.79;100.00;100702.75;4992698;28;20541;-84
2024/02/13 03:27:56;;;;;;;11.83;8.57;;;;;;;4.75;100.00;100697.66;4993835;28;20581;-83
2024/02/13 03:30:23;;;;;;;11.47;8.70;;;;;;;4.73;100.00;100708.28;4997048;28;20318;-84
2024/02/13 03:32:49;;;;;;;14.57;10.07;;;;;;;4.69;100.00;100701.38;4993703;28;20243;-82
2024/02/13 03:35:17;;;;;;;12.27;8.40;;;;;;;4.68;100.00;100702.28;4993552;28;20211;-82
2024/02/13 03:37:44;;;;;;;14.90;8.47;;;;;;;4.70;100.00;100700.47;4990409;28;20218;-82
2024/02/13 03:40:11;;;;;;;10.43;7.40;;;;;;;4.67;100.00;100703.22;4990877;28;20243;-82
2024/02/13 03:42:38;;;;;;;8.70;7.73;;;;;;;4.62;100.00;100709.59;4993961;28;20842;-81
2024/02/13 03:45:05;;;;;;;7.80;6.57;;;;;;;4.61;100.00;100711.38;4992004;28;20211;-82
2024/02/13 03:47:33;;;;;;;10.40;7.37;;;;;;;4.57;100.00;100715.03;4993820;28;20258;-83
2024/02/13 03:49:59;;;;;;;8.20;6.40;;;;;;;4.58;100.00;100711.50;4990602;28;20231;-84
2024/02/13 03:52:27;;;;;;;10.13;5.97;;;;;;;4.53;100.00;100714.28;4993111;28;20222;-82
2024/02/13 03:54:54;;;;;;;8.47;6.23;;;;;;;4.51;100.00;100721.41;4997946;28;20811;-83
2024/02/13 03:57:20;;;;;;;8.43;5.90;;;;;;;4.49;100.00;100727.66;4992676;28;20215;-83
2024/02/13 03:59:47;;;;;;;9.87;5.43;;;;;;;4.47;100.00;100724.22;4991891;28;20231;-82
2024/02/13 04:02:13;;;;;;;9.20;5.50;;;;;;;4.43;100.00;100730.53;4993494;28;20207;-85
2024/02/13 04:04:40;;;;;;;13.37;5.90;;;;;;;4.41;100.00;100732.34;4997828;28;20211;-84
2024/02/13 04:07:06;;;;;;;8.37;4.97;;;;;;;4.36;100.00;100721.97;4992587;28;20214;-85
2024/02/13 04:09:36;;;;;;;9.07;5.50;;;;;;;4.36;100.00;100729.03;4994564;28;20287;-83
2024/02/13 04:12:05;;;;;;;7.33;5.20;;;;;;;4.29;100.00;100722.28;4990863;28;20211;-83
2024/02/13 04:14:31;;;;;;;8.00;5.47;;;;;;;4.26;100.00;100730.28;4997729;28;20203;-84
2024/02/13 04:16:58;;;;;;;9.37;5.40;;;;;;;4.25;100.00;100723.28;4996320;28;20208;-83
2024/02/13 04:19:24;;;;;;;9.67;5.03;;;;;;;4.22;100.00;100718.13;4992633;28;20810;-82
2024/02/13 04:21:50;;;;;;;9.37;5.80;;;;;;;4.18;100.00;100722.63;4990507;28;20224;-83
2024/02/13 04:24:17;;;;;;;9.43;5.33;;;;;;;4.14;100.00;100721.88;4983130;28;20203;-83
2024/02/13 04:26:45;;;;;;;10.60;5.80;;;;;;;4.12;100.00;100723.72;4992910;28;20265;-82
2024/02/13 04:29:11;;;;;;;8.37;5.73;;;;;;;4.08;100.00;100721.25;4999645;28;20223;-83
2024/02/13 04:31:38;;;;;;;8.53;5.30;;;;;;;4.05;100.00;100727.50;4992904;28;20230;-84
2024/02/13 04:34:05;;;;;;;8.57;5.10;;;;;;;4.02;100.00;100726.75;4996604;28;20207;-83
2024/02/13 04:36:32;;;;;;;6.37;4.33;;;;;;;4.00;100.00;100724.16;4998085;28;20204;-84
2024/02/13 04:38:59;;;;;;;7.77;4.07;;;;;;;4.00;100.00;100728.56;4991425;28;20251;-83
2024/02/13 04:41:26;;;;;;;7.90;3.90;;;;;;;3.95;100.00;100726.09;4990958;28;20243;-83
2024/02/13 04:43:54;;;;;;;6.33;4.47;;;;;;;3.93;100.00;100719.16;4990938;28;20214;-82
2024/02/13 04:46:24;;;;;;;5.97;4.30;;;;;;;3.90;100.00;100720.13;4992827;28;20215;-84
2024/02/13 04:48:51;;;;;;;6.10;4.40;;;;;;;3.89;100.00;100728.09;4990986;28;20696;-83
2024/02/13 04:51:18;;;;;;;11.77;4.80;;;;;;;3.87;100.00;100728.13;4994104;28;20227;-84
2024/02/13 04:53:45;;;;;;;7.47;4.50;;;;;;;3.88;100.00;100726.38;4998239;28;20270;-84
2024/02/13 04:56:13;;;;;;;6.23;4.13;;;;;;;3.88;100.00;100726.38;5001822;28;20208;-84
2024/02/13 04:58:39;;;;;;;11.10;4.90;;;;;;;3.93;100.00;100720.03;4996284;28;20213;-83
2024/02/13 05:01:09;;;;;;;8.10;5.10;;;;;;;3.94;100.00;100724.34;4993479;28;20232;-84
2024/02/13 05:07:19;;;;;;;11.33;5.93;;;;;;;3.94;100.00;100727.00;4991533;28;20203;-84
2024/02/13 05:09:15;;;;;;;8.70;5.83;;;;;;;3.91;100.00;100729.75;4992310;28;20952;-83
2024/02/13 05:11:41;;;;;;;8.30;5.40;;;;;;;3.90;100.00;100741.22;4998951;28;20326;-83
2024/02/13 05:14:08;;;;;;;9.97;5.90;;;;;;;3.87;100.00;100738.69;4992287;28;20208;-84
2024/02/13 05:16:37;;;;;;;11.07;6.67;;;;;;;3.87;100.00;100738.69;4992883;28;20225;-84
2024/02/13 05:19:05;;;;;;;13.33;6.63;;;;;;;3.86;100.00;100744.84;4996710;28;20678;-83
2024/02/13 05:21:35;;;;;;;10.03;6.30;;;;;;;3.80;100.00;100739.78;4988654;28;20699;-83
2024/02/13 05:24:03;;;;;;;11.57;6.60;;;;;;;3.74;100.00;100746.16;4991567;28;20219;-82
2024/02/13 05:26:30;;;;;;;11.17;6.83;;;;;;;3.70;100.00;100741.03;4994350;28;20206;-83
2024/02/13 05:28:57;;;;;;;12.37;7.13;;;;;;;3.65;100.00;100738.53;4994303;28;20200;-81
2024/02/13 05:31:24;;;;;;;10.83;6.50;;;;;;;3.62;100.00;100749.16;4995260;28;20222;-82
2024/02/13 05:33:52;;;;;;;10.80;6.97;;;;;;;3.60;100.00;100747.50;4995814;28;20212;-84
2024/02/13 05:36:19;;;;;;;9.73;6.80;;;;;;;3.59;100.00;100744.00;4995307;28;20314;-84
2024/02/13 05:38:47;;;;;;;11.27;7.57;;;;;;;3.61;100.00;100736.91;4992606;28;20226;-83
2024/02/13 05:41:14;;;;;;;15.57;8.13;;;;;;;3.64;100.00;100751.75;4995730;28;20227;-84
2024/02/13 05:43:41;;;;;;;12.83;7.93;;;;;;;3.65;100.00;100748.22;4996954;28;20223;-83
2024/02/13 05:46:08;;;;;;;11.73;8.13;;;;;;;3.65;100.00;100753.47;4996801;28;20204;-82
2024/02/13 05:48:35;;;;;;;12.10;8.40;;;;;;;3.66;100.00;100753.44;4992381;28;20199;-83
2024/02/13 05:51:04;;;;;;;16.67;8.60;;;;;;;3.69;100.00;100750.69;4996939;28;20235;-82
2024/02/13 05:53:30;;;;;;;14.37;9.27;;;;;;;3.68;100.00;100746.34;4997629;28;20202;-83
2024/02/13 05:55:57;;;;;;;15.90;9.90;;;;;;;3.69;100.00;100755.97;5001778;28;20207;-83
2024/02/13 05:58:27;;;;;;;13.00;9.30;;;;;;;3.69;100.00;100750.69;4996847;28;20257;-84
2024/02/13 06:00:54;;;;;;;16.57;9.40;;;;;;;3.75;100.00;100752.28;4996728;28;20577;-82
2024/02/13 06:03:21;;;;;;;17.73;9.23;;;;;;;3.73;100.00;100747.06;4995102;28;20219;-82
2024/02/13 06:05:47;;;;;;;16.93;10.30;;;;;;;3.71;100.00;100759.41;4996880;28;20211;-83
2024/02/13 06:08:15;;;;;;;16.23;10.93;;;;;;;3.72;100.00;100755.00;4995700;28;20211;-82
2024/02/13 06:10:43;;;;;;;15.47;10.13;;;;;;;3.74;100.00;100761.94;4993062;28;20223;-83
2024/02/13 06:13:09;;;;;;;14.27;10.17;;;;;;;3.74;100.00;100772.50;5000221;28;20235;-83
2024/02/13 06:15:37;;;;;;;16.73;11.20;;;;;;;3.74;100.00;100769.84;4996203;28;20207;-83
2024/02/13 06:18:04;;;;;;;16.40;11.17;;;;;;;3.74;100.00;100771.63;4994414;28;20279;-82
2024/02/13 06:20:30;;;;;;;16.63;11.47;;;;;;;3.72;100.00;100781.34;4992048;28;20230;-83
2024/02/13 06:22:57;;;;;;;18.27;11.30;;;;;;;3.73;100.00;100778.66;4997125;28;20203;-84
2024/02/13 06:25:25;;;;;;;15.40;11.33;;;;;;;3.71;100.00;100782.25;4996278;28;20211;-83
2024/02/13 06:27:52;;;;;;;13.40;9.87;;;;;;;3.69;100.00;100781.44;4995557;28;20199;-83
2024/02/13 06:30:19;;;;;;;20.40;10.83;;;;;;;3.66;100.00;100785.03;5000015;28;20225;-82
2024/02/13 06:32:45;;;;;;;17.43;10.70;;;;;;;3.64;100.00;100786.00;4998106;28;20206;-83
2024/02/13 06:35:12;;;;;;;18.60;11.93;;;;;;;3.62;100.00;100790.44;4994825;28;20207;-81
2024/02/13 06:37:40;;;;;;;17.23;10.67;;;;;;;3.63;100.00;100792.16;4996719;28;20299;-83
2024/02/13 06:40:08;;;;;;;13.97;10.20;;;;;;;3.60;100.00;100800.16;4996806;28;20704;-80
2024/02/13 06:42:36;;;;;;;15.27;9.90;;;;;;;3.65;100.00;100798.25;4996099;28;20668;-82
2024/02/13 06:45:03;;;;;;;13.70;9.50;;;;;;;3.67;100.00;100801.69;4997985;28;20211;-81
2024/02/13 06:47:29;;;;;;;19.90;11.93;;;;;;;3.63;100.00;100807.97;4999415;28;20204;-83
2024/02/13 06:49:56;;;;;;;18.20;11.53;;;;;;;3.62;100.00;100806.25;4996539;28;20231;-84
2024/02/13 06:52:22;;;;;;;16.53;10.47;;;;;;;3.63;100.00;100805.34;4997231;28;20215;-84
2024/02/13 06:54:49;;;;;;;18.70;10.77;;;;;;;3.63;100.00;100802.69;4998024;28;20215;-83
2024/02/13 06:57:15;;;;;;;15.93;9.73;;;;;;;3.60;100.00;100816.81;4995044;28;20219;-82
2024/02/13 06:59:43;;;;;;;16.23;9.23;;;;;;;3.59;100.00;100816.88;4996305;28;20246;-82
2024/02/13 07:02:10;;;;;;;14.23;9.23;;;;;;;3.58;100.00;100809.91;4994802;28;20213;-81
2024/02/13 07:04:37;;;;;;;15.97;9.43;;;;;;;3.64;100.00;100825.50;4996122;28;20204;-82
2024/02/13 07:07:05;;;;;;;14.73;10.20;;;;;;;3.64;100.00;100825.50;4996899;28;20245;-82
2024/02/13 07:09:33;;;;;;;16.80;9.50;;;;;;;3.67;100.00;100828.03;4999093;28;20278;-82
2024/02/13 07:11:59;;;;;;;14.73;9.33;;;;;;;3.68;100.00;100832.41;4992559;28;20238;-84
2024/02/13 07:14:27;;;;;;;14.57;9.53;;;;;;;3.71;100.00;100832.31;4996233;28;20601;-81
2024/02/13 07:16:55;;;;;;;13.13;10.10;;;;;;;3.69;100.00;100834.13;4998189;28;20207;-82
2024/02/13 07:19:25;;;;;;;12.10;9.93;;;;;;;3.68;100.00;100832.41;4995427;28;20222;-82
2024/02/13 07:21:51;;;;;;;14.83;9.07;;;;;;;3.68;100.00;100838.53;4991254;28;20220;-82
2024/02/13 07:24:18;;;;;;;16.10;9.63;;;;;;;3.72;100.00;100834.88;4997842;28;20599;-83
2024/02/13 07:26:44;;;;;;;14.20;10.13;;;;;;;3.72;100.00;100842.78;4995542;28;20216;-83
2024/02/13 07:29:11;;;;;;;13.43;8.90;;;;;;;3.76;100.00;100844.41;5000921;28;20595;-82
2024/02/13 07:31:37;;;;;;;16.30;9.90;;;;;;;3.76;100.00;100839.13;4995040;28;20585;-83
2024/02/13 07:34:05;;;;;;;13.53;8.30;;;;;;;3.75;100.00;100840.06;4989348;28;20290;-82
2024/02/13 07:36:31;;;;;;;14.27;8.73;;;;;;;3.79;100.00;100851.34;4998378;28;20262;-83
2024/02/13 07:38:58;;;;;;;12.27;8.77;;;;;;;3.78;100.00;100854.88;4995034;28;20212;-82
2024/02/13 07:41:24;;;;;;;13.37;9.23;;;;;;;3.84;100.00;100859.97;4990172;28;20238;-82
2024/02/13 07:43:51;;;;;;;13.90;8.33;;;;;;;3.89;100.00;100857.19;4996091;28;20204;-83
2024/02/13 07:46:18;;;;;;;11.70;7.87;;;;;;;3.89;100.00;100862.47;4998768;28;20212;-83
2024/02/13 07:48:47;;;;;;;13.87;6.90;;;;;;;3.93;100.00;100857.03;5000079;28;20207;-84
2024/02/13 07:51:15;;;;;;;15.23;7.43;;;;;;;4.04;100.00;100861.94;5001909;28;20223;-83
2024/02/13 07:53:42;;;;;;;8.63;7.53;;;;;;;4.11;100.00;100866.97;4999226;28;20246;-84
2024/02/13 07:56:10;;;;;;;14.73;7.13;;;;;;;4.15;100.00;100865.94;4998356;28;20283;-83
2024/02/13 07:58:37;;;;;;;13.70;6.60;;;;;;;4.16;100.00;100862.41;4997596;28;20236;-83
2024/02/13 08:01:05;;;;;;;9.83;7.47;;;;;;;4.18;100.00;100864.97;4998350;28;20281;-83
2024/02/13 08:03:34;;;;;;;10.20;7.57;;;;;;;4.24;100.00;100859.50;4996381;28;20586;-83
2024/02/13 08:06:01;;;;;;;8.80;6.57;;;;;;;4.30;100.00;100863.72;4996980;28;20199;-82
2024/02/13 08:08:28;;;;;;;12.47;7.23;;;;;;;4.29;100.00;100880.47;4998413;28;20246;-83
2024/02/13 08:10:55;;;;;;;8.40;6.63;;;;;;;4.31;100.00;100870.69;4995859;28;20223;-83
2024/02/13 08:13:21;;;;;;;9.97;6.57;;;;;;;4.35;100.00;100872.31;4997996;28;20214;-82
2024/02/13 08:15:48;;;;;;;8.13;6.20;;;;;;;4.39;100.00;100871.31;4994493;28;20551;-83
2024/02/13 08:18:17;;;;;;;8.13;6.10;;;;;;;4.44;100.00;100872.00;4992465;28;20204;-83
2024/02/13 08:20:44;;;;;;;13.93;7.40;;;;;;;4.53;100.00;100874.31;4992145;28;20242;-83
2024/02/13 08:23:10;;;;;;;11.63;6.57;;;;;;;4.57;100.00;100865.41;4994566;28;20695;-83
2024/02/13 08:25:38;;;;;;;9.83;6.13;;;;;;;4.69;100.00;100874.63;4993501;28;20216;-83
2024/02/13 08:28:05;;;;;;;9.57;6.20;;;;;;;4.81;99.53;100872.44;4993845;28;20687;-83
2024/02/13 08:30:32;;;;;;;9.80;5.50;;;;;;;4.87;99.33;100866.91;4994620;28;20255;-82
2024/02/13 08:32:58;;;;;;;8.97;5.80;;;;;;;4.91;98.56;100872.09;4996206;28;20573;-83
2024/02/13 08:35:25;;;;;;;8.57;5.57;;;;;;;4.98;98.41;100881.53;4994960;28;20656;-83
2024/02/13 08:37:51;;;;;;;8.00;5.60;;;;;;;4.99;97.99;100881.47;4998103;28;20337;-81
2024/02/13 08:40:19;;;;;;;7.87;5.63;;;;;;;4.97;98.26;100882.44;4993223;28;20231;-81
2024/02/13 08:42:47;;;;;;;8.23;4.97;;;;;;;4.99;98.32;100892.03;4988458;28;20195;-84
2024/02/13 08:45:14;;;;;;;9.17;5.63;;;;;;;5.02;97.86;100896.31;4995307;28;20212;-83
2024/02/13 08:47:40;;;;;;;10.07;5.77;;;;;;;5.05;97.01;100894.41;4993922;28;20211;-81
2024/02/13 08:50:08;;;;;;;8.67;5.37;;;;;;;5.05;97.15;100893.56;4986695;28;20227;-84
2024/02/13 08:52:34;;;;;;;9.30;5.67;;;;;;;5.07;97.72;100892.59;4983116;28;20713;-83
2024/02/13 08:55:01;;;;;;;9.80;5.53;;;;;;;5.06;97.67;100888.22;4994700;28;20207;-83
2024/02/13 08:57:27;;;;;;;8.77;5.17;;;;;;;5.10;97.99;100897.75;4992928;28;20210;-81
2024/02/13 08:59:55;;;;;;;8.80;5.43;;;;;;;5.15;96.91;100890.53;4993578;28;20216;-81
2024/02/13 09:02:22;;;;;;;8.70;5.77;;;;;;;5.17;97.42;100901.91;4992876;28;20204;-81
2024/02/13 09:04:49;;;;;;;11.83;6.23;;;;;;;5.19;96.60;100897.44;4999435;28;20211;-81
2024/02/13 09:07:15;;;;;;;7.73;5.10;;;;;;;5.21;97.19;100905.28;4996736;28;20211;-80
2024/02/13 09:09:42;;;;;;;8.60;5.30;;;;;;;5.27;96.55;100906.84;4988922;28;20299;-81
2024/02/13 09:12:09;;;;;;;7.90;5.10;;;;;;;5.32;96.60;100899.59;4992233;28;20196;-81
2024/02/13 09:14:35;;;;;;;8.57;5.20;;;;;;;5.38;96.14;100896.72;4993984;28;20257;-83
2024/02/13 09:17:04;;;;;;;7.67;5.10;;;;;;;5.44;94.58;100904.41;4993412;28;20204;-81
2024/02/13 09:19:31;;;;;;;16.77;5.63;;;;;;;5.44;94.58;100900.00;4993785;28;20218;-81
2024/02/13 09:21:58;;;;;;;11.67;5.70;;;;;;;5.48;94.29;100919.25;4990672;28;20228;-80
2024/02/13 09:24:26;;;;;;;8.77;5.50;;;;;;;5.51;93.90;100922.63;4992135;28;20695;-80
2024/02/13 09:26:52;;;;;;;7.63;4.90;;;;;;;5.52;93.96;100928.78;4994597;28;20212;-81
2024/02/13 09:29:19;;;;;;;6.97;5.30;;;;;;;5.55;93.32;100923.38;4995532;28;20214;-83
2024/02/13 09:31:45;;;;;;;9.50;6.03;;;;;;;5.58;92.27;100916.16;4996990;28;20601;-80
2024/02/13 09:34:14;;;;;;;9.23;5.37;;;;;;;5.62;92.72;100922.22;4992314;28;20208;-82
2024/02/13 09:36:41;;;;;;;7.70;4.83;;;;;;;5.66;91.74;100923.81;4996922;28;20226;-80
2024/02/13 09:39:08;;;;;;;8.83;5.70;;;;;;;5.66;91.93;100922.97;4994342;28;20662;-82
2024/02/13 09:41:36;;;;;;;8.33;5.33;;;;;;;5.70;91.99;100932.50;4989246;28;20692;-81
2024/02/13 09:44:03;;;;;;;8.67;5.50;;;;;;;5.71;92.09;100929.78;4991225;28;20286;-81
2024/02/13 09:46:32;;;;;;;9.03;6.37;;;;;;;5.76;92.27;100938.38;4996066;28;20265;-81
2024/02/13 09:49:00;;;;;;;9.07;4.93;;;;;;;5.83;90.83;100936.38;4998162;28;20210;-80
2024/02/13 09:51:33;;;;;;;10.60;5.30;;;;;;;5.83;90.99;100936.38;4995756;28;20219;-82
2024/02/13 09:54:03;;;;;;;9.27;5.17;;;;;;;5.84;91.23;100938.09;4985555;28;20688;-80
2024/02/13 09:56:29;;;;;;;10.30;5.10;;;;;;;5.87;90.45;100940.63;4992964;28;20211;-81
2024/02/13 09:58:56;;;;;;;7.37;4.60;;;;;;;5.94;90.55;100950.03;4999642;28;20208;-82
2024/02/13 10:01:23;;;;;;;8.83;5.57;;;;;;;5.96;90.65;100950.84;4996172;28;20227;-79
2024/02/13 10:03:50;;;;;;;7.23;5.07;;;;;;;5.99;89.93;100957.81;4995519;28;20238;-81
2024/02/13 10:06:16;;;;;;;10.27;5.63;;;;;;;6.02;89.60;100955.91;5002586;28;20218;-80
2024/02/13 10:08:49;;;;;;;11.17;7.10;;;;;;;6.03;88.87;100949.69;4996656;28;20377;-80
2024/02/13 10:11:18;;;;;;;11.10;5.67;;;;;;;6.08;88.70;100960.97;4996195;28;20278;-80
2024/02/13 10:13:46;;;;;;;7.90;5.63;;;;;;;6.13;89.21;100952.81;4996086;28;20223;-78
2024/02/13 10:16:18;;;;;;;8.50;6.63;;;;;;;6.14;89.21;100962.47;4998075;28;20238;-80
2024/02/13 10:18:45;;;;;;;9.07;6.50;;;;;;;6.17;88.37;100970.28;4999664;28;20203;-80
2024/02/13 10:21:12;;;;;;;7.20;5.83;;;;;;;6.24;87.99;100966.50;4998796;28;20306;-82
2024/02/13 10:23:39;;;;;;;8.40;6.17;;;;;;;6.28;87.56;100971.56;4997405;28;20222;-80
2024/02/13 10:26:10;;;;;;;10.17;6.00;;;;;;;6.32;87.40;100979.38;5003795;28;20742;-81
2024/02/13 10:28:41;;;;;;;9.60;5.77;;;;;;;6.32;88.09;100969.66;4995657;28;20218;-81
2024/02/13 10:31:08;;;;;;;8.97;6.10;;;;;;;6.36;87.84;100987.16;4997722;28;20676;-81
2024/02/13 10:33:40;;;;;;;8.87;6.37;;;;;;;6.39;86.17;100972.94;4995114;28;20222;-82
2024/02/13 10:36:08;;;;;;;9.03;6.60;;;;;;;6.38;87.07;100980.00;4994535;28;20816;-80
2024/02/13 10:38:36;;;;;;;13.03;6.73;;;;;;;6.37;85.31;100978.28;4994990;28;20616;-80
2024/02/13 10:41:07;;;;;;;10.03;6.80;;;;;;;6.39;86.05;100983.53;4995507;28;20269;-81
2024/02/13 10:43:38;;;;;;;10.60;6.70;;;;;;;6.44;87.05;100978.91;4994794;28;20208;-80
2024/02/13 10:46:06;;;;;;;8.60;6.43;;;;;;;6.44;85.62;100977.13;4997141;28;20274;-80
2024/02/13 10:48:42;;;;;;;7.60;6.30;;;;;;;6.47;86.20;100982.25;5003918;28;20214;-80
2024/02/13 10:51:09;;;;;;;10.67;6.60;;;;;;;6.50;85.32;100984.78;4988695;28;20218;-78
2024/02/13 10:53:36;;;;;;;8.83;5.63;;;;;;;6.54;85.49;100980.25;4995165;28;20266;-80
2024/02/13 10:56:03;;;;;;;9.07;6.00;;;;;;;6.55;85.72;100976.66;4993201;28;20581;-80
2024/02/13 10:58:31;;;;;;;8.93;6.13;;;;;;;6.61;85.43;100973.78;4995071;28;20258;-80
2024/02/13 11:00:59;;;;;;;9.07;6.43;;;;;;;6.68;85.04;100983.16;4994895;28;20246;-79
2024/02/13 11:03:27;;;;;;;7.60;5.60;;;;;;;6.74;84.93;100961.75;4993837;28;20212;-80
2024/02/13 11:05:53;;;;;;;7.57;6.17;;;;;;;6.80;84.70;100974.72;4994546;28;20208;-80
2024/02/13 11:08:20;;;;;;;8.07;6.40;;;;;;;6.82;84.56;100962.25;4995009;28;20230;-80
2024/02/13 11:10:46;;;;;;;7.93;6.00;;;;;;;6.89;85.33;100966.38;5001993;28;20224;-80
2024/02/13 11:13:13;;;;;;;8.33;6.43;;;;;;;6.94;83.76;100969.69;4994688;28;20215;-80
2024/02/13 11:15:40;;;;;;;8.70;6.43;;;;;;;6.96;84.54;100967.00;4994039;28;20219;-80
2024/02/13 11:18:12;;;;;;;9.07;5.97;;;;;;;7.02;85.08;100968.47;4995495;28;20227;-82
2024/02/13 11:20:42;;;;;;;9.90;5.77;;;;;;;7.05;84.19;100971.00;4991847;28;20239;-79
2024/02/13 11:23:12;;;;;;;8.50;5.70;;;;;;;7.11;84.01;100982.19;4995739;28;20200;-82
2024/02/13 11:25:40;;;;;;;9.80;7.07;;;;;;;7.14;84.21;100978.56;5000077;28;20230;-79